Time;durP1;ratioP1;P1;durP2;ratioP2;P2;SDS_P1;SDS_P2;PMS_P1;PMS_P2;Temp;Humidity;BMP_temperature;BMP_pressure;BME280_temperature;BME280_humidity;BME280_pressure;Samples;Min_cycle;Max_cycle;Signal;HPM_P1;HPM_P2
2023/04/25 00:01:09;;;;;;;;;;;8.30;99.90;;;;;;4921490;29;19921;-70
2023/04/25 00:03:35;;;;;;;;;;;8.30;99.90;;;;;;4916878;29;19926;-70
2023/04/25 00:06:02;;;;;;;;;;;8.30;99.90;;;;;;4918503;29;19930;-70
2023/04/25 00:08:28;;;;;;;;;;;8.30;99.90;;;;;;4907192;29;19915;-71
2023/04/25 00:10:54;;;;;;;;;;;8.30;99.90;;;;;;4916397;29;20304;-69
2023/04/25 00:13:20;;;;;;;;;;;8.20;99.90;;;;;;4910843;29;19966;-71
2023/04/25 00:15:46;;;;;;;;;;;8.10;99.90;;;;;;4922638;29;19919;-70
2023/04/25 00:18:11;;;;;;;;;;;8.20;99.90;;;;;;4910052;29;19923;-70
2023/04/25 00:20:37;;;;;;;;;;;8.10;99.90;;;;;;4922355;29;19925;-70
2023/04/25 00:23:02;;;;;;;;;;;8.20;99.90;;;;;;4932875;29;19915;-71
2023/04/25 00:25:28;;;;;;;;;;;8.10;99.90;;;;;;4916825;29;19925;-70
2023/04/25 00:27:54;;;;;;;;;;;8.10;99.90;;;;;;4916613;29;19926;-70
2023/04/25 00:30:20;;;;;;;;;;;8.20;99.90;;;;;;4916884;29;19915;-69
2023/04/25 00:32:47;;;;;;;;;;;8.10;99.90;;;;;;4893296;29;19970;-70
2023/04/25 00:35:12;;;;;;;;;;;8.10;99.90;;;;;;4915018;29;20411;-70
2023/04/25 00:37:38;;;;;;;;;;;8.00;99.90;;;;;;4916305;29;19915;-70
2023/04/25 00:40:07;;;;;;;;;;;8.10;99.90;;;;;;4909693;29;20014;-70
2023/04/25 00:42:33;;;;;;;;;;;8.10;99.90;;;;;;4912092;29;20376;-70
2023/04/25 00:44:59;;;;;;;;;;;8.00;99.90;;;;;;4897096;29;19954;-70
2023/04/25 00:47:25;;;;;;;;;;;8.00;99.90;;;;;;4914530;29;19914;-70
2023/04/25 00:49:51;;;;;;;;;;;8.00;99.90;;;;;;4897715;29;19915;-70
2023/04/25 00:52:16;;;;;;;;;;;8.00;99.90;;;;;;4915407;29;19915;-70
2023/04/25 00:54:42;;;;;;;;;;;8.00;99.90;;;;;;4902079;29;19930;-69
2023/04/25 00:57:07;;;;;;;;;;;8.00;99.90;;;;;;4934526;29;19915;-70
2023/04/25 00:59:33;;;;;;;;;;;8.00;99.90;;;;;;4934524;29;19923;-70
2023/04/25 01:01:59;;;;;;;;;;;8.00;99.90;;;;;;4946290;29;19995;-70
2023/04/25 01:04:26;;;;;;;;;;;8.00;99.90;;;;;;4934239;29;20330;-70
2023/04/25 01:06:52;;;;;;;;;;;8.00;99.90;;;;;;4950361;29;19911;-70
2023/04/25 01:09:17;;;;;;;;;;;8.00;99.90;;;;;;4932449;29;19974;-70
2023/04/25 01:11:43;;;;;;;;;;;7.90;99.90;;;;;;4950409;29;19922;-70
2023/04/25 01:14:09;;;;;;;;;;;7.90;99.90;;;;;;4937044;29;19970;-70
2023/04/25 01:16:34;;;;;;;;;;;7.90;99.90;;;;;;4953431;29;19926;-70
2023/04/25 01:19:05;;;;;;;;;;;7.90;99.90;;;;;;4938141;29;20653;-70
2023/04/25 01:21:31;;;;;;;;;;;7.90;99.90;;;;;;4937605;29;20283;-70
2023/04/25 01:23:57;;;;;;;;;;;7.90;99.90;;;;;;4937337;29;19915;-71
2023/04/25 01:26:23;;;;;;;;;;;8.00;99.90;;;;;;4938072;29;20323;-70
2023/04/25 01:28:48;;;;;;;;;;;7.90;99.90;;;;;;4953695;29;20307;-69
2023/04/25 01:31:14;;;;;;;;;;;8.00;99.90;;;;;;4937626;29;20244;-68
2023/04/25 01:33:40;;;;;;;;;;;7.90;99.90;;;;;;4953503;29;19914;-69
2023/04/25 01:36:06;;;;;;;;;;;7.90;99.90;;;;;;4939608;29;19918;-70
2023/04/25 01:38:31;;;;;;;;;;;7.80;99.90;;;;;;4921570;29;19914;-69
2023/04/25 01:40:57;;;;;;;;;;;7.80;99.90;;;;;;4936964;29;20029;-69
2023/04/25 01:43:23;;;;;;;;;;;7.90;99.90;;;;;;4953466;29;19929;-70
2023/04/25 01:45:49;;;;;;;;;;;7.80;99.90;;;;;;4937270;29;19915;-70
2023/04/25 01:48:15;;;;;;;;;;;7.80;99.90;;;;;;4937314;29;19914;-70
2023/04/25 01:50:41;;;;;;;;;;;7.70;99.90;;;;;;4947773;29;19930;-69
2023/04/25 01:53:07;;;;;;;;;;;7.70;99.90;;;;;;4921443;29;19954;-70
2023/04/25 01:55:32;;;;;;;;;;;7.70;99.90;;;;;;4935865;29;19958;-70
2023/04/25 01:57:59;;;;;;;;;;;7.60;99.90;;;;;;4952529;29;19923;-69
2023/04/25 02:00:25;;;;;;;;;;;7.60;99.90;;;;;;4920468;29;19926;-70
2023/04/25 02:02:53;;;;;;;;;;;7.60;99.90;;;;;;4935570;29;20267;-69
2023/04/25 02:05:19;;;;;;;;;;;7.60;99.90;;;;;;4935942;29;19914;-69
2023/04/25 02:07:46;;;;;;;;;;;7.70;99.90;;;;;;4936824;29;19976;-70
2023/04/25 02:10:12;;;;;;;;;;;7.70;99.90;;;;;;4952499;29;19911;-70
2023/04/25 02:12:37;;;;;;;;;;;7.70;99.90;;;;;;4936656;29;19945;-70
2023/04/25 02:15:03;;;;;;;;;;;7.60;99.90;;;;;;4952810;29;19965;-69
2023/04/25 02:17:31;;;;;;;;;;;7.60;99.90;;;;;;4951540;29;20017;-69
2023/04/25 02:19:57;;;;;;;;;;;7.60;99.90;;;;;;4937264;29;20557;-70
2023/04/25 02:22:23;;;;;;;;;;;7.60;99.90;;;;;;4951094;29;19915;-69
2023/04/25 02:24:48;;;;;;;;;;;7.60;99.90;;;;;;4936211;29;19925;-69
2023/04/25 02:27:14;;;;;;;;;;;7.60;99.90;;;;;;4937471;29;20332;-70
2023/04/25 02:29:40;;;;;;;;;;;7.60;99.90;;;;;;4949800;29;20403;-69
2023/04/25 02:32:05;;;;;;;;;;;7.50;99.90;;;;;;4935840;29;19918;-69
2023/04/25 02:34:31;;;;;;;;;;;7.60;99.90;;;;;;4936912;29;20001;-69
2023/04/25 02:36:57;;;;;;;;;;;7.50;99.90;;;;;;4936001;29;19921;-69
2023/04/25 02:39:24;;;;;;;;;;;7.60;99.90;;;;;;4951422;29;19922;-70
2023/04/25 02:41:50;;;;;;;;;;;7.60;99.90;;;;;;4936167;29;20225;-70
2023/04/25 02:44:16;;;;;;;;;;;7.70;99.90;;;;;;4936009;29;19925;-70
2023/04/25 02:46:41;;;;;;;;;;;7.60;99.90;;;;;;4946189;29;19911;-70
2023/04/25 02:49:07;;;;;;;;;;;7.60;99.90;;;;;;4936326;29;19915;-69
2023/04/25 02:51:33;;;;;;;;;;;7.50;99.90;;;;;;4935111;29;20311;-69
2023/04/25 02:53:58;;;;;;;;;;;7.60;99.90;;;;;;4936379;29;19922;-69
2023/04/25 02:56:25;;;;;;;;;;;7.50;99.90;;;;;;4951238;29;19918;-70
2023/04/25 02:58:52;;;;;;;;;;;7.50;99.90;;;;;;4936383;29;20371;-69
2023/04/25 03:01:18;;;;;;;;;;;7.50;99.90;;;;;;4935658;29;20311;-70
2023/04/25 03:03:44;;;;;;;;;;;7.50;99.90;;;;;;4950945;29;19919;-69
2023/04/25 03:06:10;;;;;;;;;;;7.50;99.90;;;;;;4936527;29;20320;-70
2023/04/25 03:08:36;;;;;;;;;;;7.50;99.90;;;;;;4937067;29;19926;-70
2023/04/25 03:11:02;;;;;;;;;;;7.50;99.90;;;;;;4950109;29;19914;-69
2023/04/25 03:13:29;;;;;;;;;;;7.50;99.90;;;;;;4951144;29;20347;-70
2023/04/25 03:15:55;;;;;;;;;;;7.50;99.90;;;;;;4950898;29;19930;-69
2023/04/25 03:18:21;;;;;;;;;;;7.50;99.90;;;;;;4946962;29;19914;-69
2023/04/25 03:20:46;;;;;;;;;;;7.50;99.90;;;;;;4949614;29;19990;-70
2023/04/25 03:23:12;;;;;;;;;;;7.50;99.90;;;;;;4935653;29;20399;-70
2023/04/25 03:25:38;;;;;;;;;;;7.40;99.90;;;;;;4934045;29;20026;-69
2023/04/25 03:28:03;;;;;;;;;;;7.50;99.90;;;;;;4934424;29;20373;-69
2023/04/25 03:30:29;;;;;;;;;;;7.50;99.90;;;;;;4950559;29;19918;-70
2023/04/25 03:32:55;;;;;;;;;;;7.40;99.90;;;;;;4934444;29;19914;-70
2023/04/25 03:35:20;;;;;;;;;;;7.40;99.90;;;;;;4934813;29;19926;-70
2023/04/25 03:37:46;;;;;;;;;;;7.20;99.90;;;;;;4935201;29;20328;-69
2023/04/25 03:40:12;;;;;;;;;;;7.30;99.90;;;;;;4950946;29;20243;-70
2023/04/25 03:42:38;;;;;;;;;;;7.20;99.90;;;;;;4934414;29;20042;-70
2023/04/25 03:45:05;;;;;;;;;;;7.30;99.90;;;;;;4933951;29;20006;-70
2023/04/25 03:47:30;;;;;;;;;;;7.20;99.90;;;;;;4934599;29;19929;-70
2023/04/25 03:49:56;;;;;;;;;;;7.30;99.90;;;;;;4934664;29;20001;-70
2023/04/25 03:52:22;;;;;;;;;;;7.20;99.90;;;;;;4935091;29;19915;-71
2023/04/25 03:54:47;;;;;;;;;;;7.30;99.90;;;;;;4949106;29;19918;-70
2023/04/25 03:57:13;;;;;;;;;;;7.20;99.90;;;;;;4934758;29;19934;-70
2023/04/25 03:59:39;;;;;;;;;;;7.20;99.90;;;;;;4935679;29;19914;-70
2023/04/25 04:02:05;;;;;;;;;;;7.20;99.90;;;;;;4934868;29;19964;-70
2023/04/25 04:04:30;;;;;;;;;;;7.20;99.90;;;;;;4934318;29;19946;-70
2023/04/25 04:06:56;;;;;;;;;;;7.10;99.90;;;;;;4935730;29;19970;-71
2023/04/25 04:09:21;;;;;;;;;;;7.10;99.90;;;;;;4933811;29;19914;-70
2023/04/25 04:11:47;;;;;;;;;;;7.10;99.90;;;;;;4934359;29;20248;-70
2023/04/25 04:14:13;;;;;;;;;;;7.20;99.90;;;;;;4917517;29;20017;-70
2023/04/25 04:16:38;;;;;;;;;;;7.10;99.90;;;;;;4934949;29;19922;-70
2023/04/25 04:19:04;;;;;;;;;;;7.30;99.90;;;;;;4935066;29;19961;-70
2023/04/25 04:21:30;;;;;;;;;;;7.30;99.90;;;;;;4934236;29;19914;-70
2023/04/25 04:23:57;;;;;;;;;;;7.30;99.90;;;;;;4950474;29;19910;-70
2023/04/25 04:26:23;;;;;;;;;;;7.30;99.90;;;;;;4949994;29;19914;-70
2023/04/25 04:28:54;;;;;;;;;;;7.40;99.90;;;;;;4933762;29;19984;-70
2023/04/25 04:31:23;;;;;;;;;;;7.40;99.90;;;;;;4918814;29;19968;-70
2023/04/25 04:33:49;;;;;;;;;;;7.30;99.90;;;;;;4930916;29;19934;-70
2023/04/25 04:36:15;;;;;;;;;;;7.50;99.90;;;;;;4948968;29;20613;-70
2023/04/25 04:38:42;;;;;;;;;;;7.50;99.90;;;;;;4934211;29;19950;-70
2023/04/25 04:41:07;;;;;;;;;;;7.40;99.90;;;;;;4949140;29;20418;-70
2023/04/25 04:43:33;;;;;;;;;;;7.40;99.90;;;;;;4933526;29;19919;-70
2023/04/25 04:46:03;;;;;;;;;;;7.40;99.90;;;;;;4932988;29;19919;-70
2023/04/25 04:48:32;;;;;;;;;;;7.30;99.90;;;;;;4933786;29;20255;-70
2023/04/25 04:50:58;;;;;;;;;;;7.40;99.90;;;;;;4937431;29;19914;-70
2023/04/25 04:53:23;;;;;;;;;;;7.50;99.90;;;;;;4952456;29;20394;-70
2023/04/25 04:55:49;;;;;;;;;;;7.30;99.90;;;;;;4936996;29;19925;-70
2023/04/25 04:58:15;;;;;;;;;;;7.30;99.90;;;;;;4938120;29;19914;-70
2023/04/25 05:00:41;;;;;;;;;;;7.40;99.90;;;;;;4934815;29;19915;-70
2023/04/25 05:03:06;;;;;;;;;;;7.40;99.90;;;;;;4950734;28;20236;-70
2023/04/25 05:05:32;;;;;;;;;;;7.40;99.90;;;;;;4937496;29;20009;-70
2023/04/25 05:07:58;;;;;;;;;;;7.40;99.90;;;;;;4950422;29;19961;-70
2023/04/25 05:10:23;;;;;;;;;;;7.20;99.90;;;;;;4937778;29;19918;-69
2023/04/25 05:12:49;;;;;;;;;;;7.20;99.90;;;;;;4935474;29;19914;-69
2023/04/25 05:15:14;;;;;;;;;;;7.20;99.90;;;;;;4919752;29;19947;-70
2023/04/25 05:17:40;;;;;;;;;;;7.10;99.90;;;;;;4937063;29;19922;-70
2023/04/25 05:20:07;;;;;;;;;;;7.20;99.90;;;;;;4934574;29;20005;-70
2023/04/25 05:22:33;;;;;;;;;;;7.30;99.90;;;;;;4942706;29;19914;-70
2023/04/25 05:24:58;;;;;;;;;;;7.30;99.90;;;;;;4951408;29;20350;-70
2023/04/25 05:27:24;;;;;;;;;;;7.20;99.90;;;;;;4938902;29;19919;-70
2023/04/25 05:29:50;;;;;;;;;;;7.30;99.90;;;;;;4937484;29;19969;-70
2023/04/25 05:32:15;;;;;;;;;;;7.30;99.90;;;;;;4937755;29;19957;-70
2023/04/25 05:34:41;;;;;;;;;;;7.30;99.90;;;;;;4938739;29;20324;-70
2023/04/25 05:37:07;;;;;;;;;;;7.30;99.90;;;;;;4937917;29;20009;-70
2023/04/25 05:39:32;;;;;;;;;;;7.40;99.90;;;;;;4933694;29;20407;-70
2023/04/25 05:41:58;;;;;;;;;;;7.40;99.90;;;;;;4952486;29;19941;-70
2023/04/25 05:44:24;;;;;;;;;;;7.40;99.90;;;;;;4937182;29;19930;-70
2023/04/25 05:46:49;;;;;;;;;;;7.20;99.90;;;;;;4938382;29;19981;-70
2023/04/25 05:49:15;;;;;;;;;;;7.40;99.90;;;;;;4937019;29;19918;-70
2023/04/25 05:51:41;;;;;;;;;;;7.40;99.90;;;;;;4937643;29;19915;-70
2023/04/25 05:54:06;;;;;;;;;;;7.20;99.90;;;;;;4935797;29;20455;-70
2023/04/25 05:56:32;;;;;;;;;;;7.30;99.90;;;;;;4902523;29;20006;-70
2023/04/25 05:58:58;;;;;;;;;;;7.20;99.90;;;;;;4917522;29;20050;-69
2023/04/25 06:01:23;;;;;;;;;;;7.10;99.90;;;;;;4918251;29;19966;-69
2023/04/25 06:03:51;;;;;;;;;;;7.10;99.90;;;;;;4919583;29;19989;-70
2023/04/25 06:06:16;;;;;;;;;;;7.10;99.90;;;;;;4919244;29;19915;-70
2023/04/25 06:08:42;;;;;;;;;;;7.20;99.90;;;;;;4918434;29;20351;-70
2023/04/25 06:11:08;;;;;;;;;;;7.40;99.90;;;;;;4917618;29;20005;-70
2023/04/25 06:13:33;;;;;;;;;;;7.30;99.90;;;;;;4909722;29;20336;-68
2023/04/25 06:15:59;;;;;;;;;;;7.30;99.90;;;;;;4920299;29;19934;-70
2023/04/25 06:18:24;;;;;;;;;;;7.30;99.90;;;;;;4915562;29;20416;-69
2023/04/25 06:20:50;;;;;;;;;;;7.20;99.90;;;;;;4920046;29;20009;-70
2023/04/25 06:23:16;;;;;;;;;;;7.20;99.90;;;;;;4919714;29;20364;-70
2023/04/25 06:25:42;;;;;;;;;;;7.20;99.90;;;;;;4920397;29;19965;-70
2023/04/25 06:28:08;;;;;;;;;;;7.10;99.90;;;;;;4921727;29;19971;-69
2023/04/25 06:30:33;;;;;;;;;;;7.10;99.90;;;;;;4906217;29;20010;-70
2023/04/25 06:33:00;;;;;;;;;;;7.10;99.90;;;;;;4921670;29;19925;-70
2023/04/25 06:35:26;;;;;;;;;;;7.30;99.90;;;;;;4916968;29;20323;-70
2023/04/25 06:37:51;;;;;;;;;;;7.20;99.90;;;;;;4920095;29;19925;-69
2023/04/25 06:40:17;;;;;;;;;;;7.30;99.90;;;;;;4909675;29;20260;-70
2023/04/25 06:42:43;;;;;;;;;;;7.30;99.90;;;;;;4935769;29;19914;-70
2023/04/25 06:45:09;;;;;;;;;;;7.30;99.90;;;;;;4912870;29;19910;-69
2023/04/25 06:47:34;;;;;;;;;;;7.50;99.90;;;;;;4931319;29;19946;-70
2023/04/25 06:50:00;;;;;;;;;;;7.40;99.90;;;;;;4917759;29;19934;-70
2023/04/25 06:52:25;;;;;;;;;;;7.40;99.90;;;;;;4928034;29;20050;-74
2023/04/25 06:54:51;;;;;;;;;;;7.40;99.90;;;;;;4924818;29;19985;-75
2023/04/25 06:57:17;;;;;;;;;;;7.20;99.90;;;;;;4935291;29;20354;-74
2023/04/25 06:59:43;;;;;;;;;;;7.30;99.90;;;;;;4929079;29;20667;-74
2023/04/25 07:02:08;;;;;;;;;;;7.50;99.90;;;;;;4945751;29;19911;-74
2023/04/25 07:04:34;;;;;;;;;;;7.60;99.90;;;;;;4935818;29;20359;-74
2023/04/25 07:07:02;;;;;;;;;;;7.70;99.90;;;;;;4926019;29;19914;-74
2023/04/25 07:09:28;;;;;;;;;;;7.80;99.90;;;;;;4923529;29;19922;-74
2023/04/25 07:11:53;;;;;;;;;;;7.70;99.90;;;;;;4935137;29;20244;-74
2023/04/25 07:14:19;;;;;;;;;;;7.70;99.90;;;;;;4937013;29;19915;-74
2023/04/25 07:16:44;;;;;;;;;;;7.80;99.90;;;;;;4940077;29;19985;-74
2023/04/25 07:19:10;;;;;;;;;;;7.90;99.90;;;;;;4952528;28;20312;-74
2023/04/25 07:21:36;;;;;;;;;;;8.00;99.90;;;;;;4951240;29;21037;-74
2023/04/25 07:24:02;;;;;;;;;;;8.10;97.90;;;;;;4934594;29;20001;-75
2023/04/25 07:26:27;;;;;;;;;;;8.10;97.10;;;;;;4947248;29;19962;-74
2023/04/25 07:28:54;;;;;;;;;;;8.30;98.00;;;;;;4949119;28;20479;-74
2023/04/25 07:31:20;;;;;;;;;;;8.20;96.90;;;;;;4950995;29;19921;-75
2023/04/25 07:33:45;;;;;;;;;;;7.90;96.20;;;;;;4932214;29;19989;-74
2023/04/25 07:36:12;;;;;;;;;;;8.10;98.30;;;;;;4943616;29;19929;-74
2023/04/25 07:38:39;;;;;;;;;;;8.30;97.40;;;;;;4932759;29;19922;-74
2023/04/25 07:41:05;;;;;;;;;;;8.30;96.60;;;;;;4932679;29;19958;-74
2023/04/25 07:43:30;;;;;;;;;;;8.10;95.20;;;;;;4952864;28;19961;-75
2023/04/25 07:45:56;;;;;;;;;;;8.10;95.20;;;;;;4934931;29;20244;-75
2023/04/25 07:48:22;;;;;;;;;;;8.20;95.00;;;;;;4931907;29;19911;-75
2023/04/25 07:50:47;;;;;;;;;;;8.30;96.40;;;;;;4947993;29;19921;-75
2023/04/25 07:53:13;;;;;;;;;;;8.40;95.80;;;;;;4934752;29;20800;-75
2023/04/25 07:55:40;;;;;;;;;;;8.00;93.00;;;;;;4933940;29;20033;-75
2023/04/25 07:58:06;;;;;;;;;;;8.20;94.30;;;;;;4936966;29;19977;-75
2023/04/25 08:00:32;;;;;;;;;;;8.20;94.70;;;;;;4936467;29;19915;-75
2023/04/25 08:02:58;;;;;;;;;;;8.30;94.10;;;;;;4939801;29;19911;-74
2023/04/25 08:05:23;;;;;;;;;;;8.40;94.60;;;;;;4945443;29;19914;-72
2023/04/25 08:07:49;;;;;;;;;;;8.30;93.70;;;;;;4949666;28;19915;-71
2023/04/25 08:10:16;;;;;;;;;;;8.20;92.50;;;;;;4934444;29;19937;-70
2023/04/25 08:12:42;;;;;;;;;;;8.10;91.90;;;;;;4931867;29;19915;-70
2023/04/25 08:15:08;;;;;;;;;;;8.10;91.80;;;;;;4948212;29;20295;-69
2023/04/25 08:17:34;;;;;;;;;;;7.90;91.50;;;;;;4933331;29;19927;-70
2023/04/25 08:20:05;;;;;;;;;;;8.00;92.20;;;;;;4931397;29;19922;-69
2023/04/25 08:22:30;;;;;;;;;;;8.00;92.40;;;;;;4932322;29;19961;-70
2023/04/25 08:24:57;;;;;;;;;;;8.00;92.60;;;;;;4933867;29;19954;-70
2023/04/25 08:27:23;;;;;;;;;;;7.90;92.60;;;;;;4932198;29;19950;-70
2023/04/25 08:29:50;;;;;;;;;;;8.10;93.10;;;;;;4917082;29;19915;-70
2023/04/25 08:32:16;;;;;;;;;;;8.10;93.80;;;;;;4933596;29;20525;-70
2023/04/25 08:34:43;;;;;;;;;;;8.10;93.40;;;;;;4916184;29;20221;-70
2023/04/25 08:37:12;;;;;;;;;;;8.20;93.60;;;;;;4933418;29;19919;-70
2023/04/25 08:39:39;;;;;;;;;;;8.10;93.70;;;;;;4943732;29;19967;-70
2023/04/25 08:42:07;;;;;;;;;;;8.10;93.70;;;;;;4944150;29;19925;-70
2023/04/25 08:44:33;;;;;;;;;;;8.10;94.00;;;;;;4943728;29;20342;-70
2023/04/25 08:46:59;;;;;;;;;;;8.00;94.30;;;;;;4934155;29;20040;-70
2023/04/25 08:49:24;;;;;;;;;;;8.00;95.30;;;;;;4934796;29;19981;-70
2023/04/25 08:51:51;;;;;;;;;;;7.90;96.60;;;;;;4943935;29;19911;-70
2023/04/25 08:54:17;;;;;;;;;;;7.90;98.70;;;;;;4933471;29;19970;-70
2023/04/25 08:56:45;;;;;;;;;;;7.90;99.00;;;;;;4918118;29;19915;-70
2023/04/25 08:59:11;;;;;;;;;;;7.90;99.50;;;;;;4908765;29;19965;-70
2023/04/25 09:01:38;;;;;;;;;;;7.90;99.70;;;;;;4928447;29;19946;-70
2023/04/25 09:04:04;;;;;;;;;;;8.00;99.70;;;;;;4912218;29;19919;-70
2023/04/25 09:06:30;;;;;;;;;;;8.10;97.60;;;;;;4922773;29;19918;-70
2023/04/25 09:09:06;;;;;;;;;;;8.30;97.60;;;;;;4910382;29;19970;-70
2023/04/25 09:11:32;;;;;;;;;;;8.30;96.60;;;;;;4914863;29;19922;-70
2023/04/25 09:14:11;;;;;;;;;;;8.20;95.30;;;;;;4915262;29;20197;-70
2023/04/25 09:16:49;;;;;;;;;;;8.30;95.70;;;;;;4903386;29;20301;-70
2023/04/25 09:19:22;;;;;;;;;;;8.20;93.50;;;;;;4904979;29;19922;-70
2023/04/25 09:21:51;;;;;;;;;;;8.10;92.80;;;;;;4914047;29;19921;-69
2023/04/25 09:24:20;;;;;;;;;;;8.30;92.10;;;;;;4898550;29;20363;-70
2023/04/25 09:26:47;;;;;;;;;;;8.50;92.60;;;;;;4913276;29;19970;-70
2023/04/25 09:29:13;;;;;;;;;;;8.70;90.30;;;;;;4907180;29;19915;-70
2023/04/25 09:31:38;;;;;;;;;;;8.60;88.70;;;;;;4913350;29;19922;-69
2023/04/25 09:34:04;;;;;;;;;;;8.60;87.30;;;;;;4904210;29;19926;-70
2023/04/25 09:36:30;;;;;;;;;;;8.40;88.50;;;;;;4925869;29;19919;-70
2023/04/25 09:38:56;;;;;;;;;;;8.30;89.20;;;;;;4914116;29;19986;-70
2023/04/25 09:41:24;;;;;;;;;;;8.30;89.10;;;;;;4928687;29;20287;-70
2023/04/25 09:43:50;;;;;;;;;;;8.30;88.50;;;;;;4919424;29;20014;-70
2023/04/25 09:46:17;;;;;;;;;;;8.50;88.80;;;;;;4930888;29;20320;-70
2023/04/25 09:48:47;;;;;;;;;;;8.40;89.30;;;;;;4933914;29;19914;-71
2023/04/25 09:51:13;;;;;;;;;;;8.30;87.90;;;;;;4915284;29;19966;-69
2023/04/25 09:53:42;;;;;;;;;;;8.30;88.30;;;;;;4936515;29;19918;-70
2023/04/25 09:56:09;;;;;;;;;;;8.40;88.10;;;;;;4919009;29;19930;-70
2023/04/25 09:58:35;;;;;;;;;;;8.30;89.30;;;;;;4920586;29;19923;-69
2023/04/25 10:01:02;;;;;;;;;;;8.30;88.30;;;;;;4937716;29;19914;-70
2023/04/25 10:03:31;;;;;;;;;;;8.20;88.00;;;;;;4937332;29;19925;-70
2023/04/25 10:06:00;;;;;;;;;;;8.30;88.30;;;;;;4946160;29;20324;-70
2023/04/25 10:08:27;;;;;;;;;;;8.20;89.50;;;;;;4937934;29;20204;-70
2023/04/25 10:10:53;;;;;;;;;;;8.30;90.30;;;;;;4952785;29;19925;-70
2023/04/25 10:13:18;;;;;;;;;;;8.40;90.70;;;;;;4937011;29;19915;-70
2023/04/25 10:15:44;;;;;;;;;;;8.40;89.30;;;;;;4935780;29;20320;-70
2023/04/25 10:18:11;;;;;;;;;;;8.40;90.10;;;;;;4934039;29;19919;-70
2023/04/25 10:20:37;;;;;;;;;;;8.40;89.90;;;;;;4949954;29;19911;-70
2023/04/25 10:23:16;;;;;;;;;;;8.40;88.20;;;;;;4933381;29;19914;-69
2023/04/25 10:25:42;;;;;;;;;;;8.30;88.50;;;;;;4932166;29;20335;-70
2023/04/25 10:28:08;;;;;;;;;;;8.40;89.30;;;;;;4935822;29;19911;-69
2023/04/25 10:30:33;;;;;;;;;;;8.60;90.10;;;;;;4951437;29;19914;-70
2023/04/25 10:32:59;;;;;;;;;;;8.50;87.50;;;;;;4933912;29;20021;-70
2023/04/25 10:35:28;;;;;;;;;;;8.50;88.10;;;;;;4933579;29;19969;-70
2023/04/25 10:38:02;;;;;;;;;;;8.60;88.50;;;;;;4950409;29;19918;-70
2023/04/25 10:40:28;;;;;;;;;;;8.70;88.90;;;;;;4937094;29;20031;-70
2023/04/25 10:42:56;;;;;;;;;;;8.70;88.90;;;;;;4932428;29;20673;-70
2023/04/25 10:45:22;;;;;;;;;;;8.70;89.10;;;;;;4951522;28;19922;-70
2023/04/25 10:47:48;;;;;;;;;;;9.00;88.90;;;;;;4936230;29;19974;-70
2023/04/25 10:50:16;;;;;;;;;;;9.30;88.30;;;;;;4936277;29;19919;-70
2023/04/25 10:52:42;;;;;;;;;;;9.30;85.70;;;;;;4935212;29;19962;-70
2023/04/25 10:55:08;;;;;;;;;;;9.00;83.40;;;;;;4935633;29;19938;-70
2023/04/25 10:57:51;;;;;;;;;;;8.90;84.50;;;;;;4950729;29;19926;-70
2023/04/25 11:00:18;;;;;;;;;;;9.00;80.90;;;;;;4935631;29;19963;-70
2023/04/25 11:02:47;;;;;;;;;;;8.90;80.00;;;;;;4951409;29;19914;-70
2023/04/25 11:05:25;;;;;;;;;;;8.80;77.80;;;;;;4934759;29;19922;-70
2023/04/25 11:07:52;;;;;;;;;;;8.90;78.60;;;;;;4936451;29;19926;-70
2023/04/25 11:10:17;;;;;;;;;;;9.00;78.20;;;;;;4934943;29;20336;-69
2023/04/25 11:12:44;;;;;;;;;;;9.00;78.80;;;;;;4936727;29;19915;-70
2023/04/25 11:15:10;;;;;;;;;;;8.90;79.60;;;;;;4951862;29;19915;-70
2023/04/25 11:17:35;;;;;;;;;;;8.90;79.70;;;;;;4951322;29;20332;-70
2023/04/25 11:20:03;;;;;;;;;;;8.90;80.00;;;;;;4935172;29;19914;-71
2023/04/25 11:22:29;;;;;;;;;;;8.90;80.50;;;;;;4950553;29;19915;-70
2023/04/25 11:24:55;;;;;;;;;;;9.00;80.90;;;;;;4934476;29;19917;-70
2023/04/25 11:27:21;;;;;;;;;;;9.00;81.40;;;;;;4945680;29;19910;-70
2023/04/25 11:29:51;;;;;;;;;;;9.00;82.10;;;;;;4934317;29;20370;-69
2023/04/25 11:32:17;;;;;;;;;;;8.80;79.50;;;;;;4944277;29;20426;-70
2023/04/25 11:34:43;;;;;;;;;;;8.80;80.70;;;;;;4918965;29;20001;-70
2023/04/25 11:37:08;;;;;;;;;;;8.90;81.50;;;;;;4934361;29;19914;-70
2023/04/25 11:39:34;;;;;;;;;;;8.70;80.90;;;;;;4947387;29;19925;-69
2023/04/25 11:42:01;;;;;;;;;;;8.60;81.40;;;;;;4946802;29;20040;-70
2023/04/25 11:44:26;;;;;;;;;;;8.50;83.90;;;;;;4934561;29;19915;-70
2023/04/25 11:46:52;;;;;;;;;;;8.40;86.80;;;;;;4948934;29;20355;-70
2023/04/25 11:49:18;;;;;;;;;;;8.30;88.30;;;;;;4950970;29;19926;-70
2023/04/25 11:51:44;;;;;;;;;;;8.40;89.80;;;;;;4934229;29;19910;-70
2023/04/25 11:54:10;;;;;;;;;;;8.40;90.30;;;;;;4950539;29;20400;-70
2023/04/25 11:56:35;;;;;;;;;;;8.50;90.50;;;;;;4928977;29;20009;-70
2023/04/25 11:59:02;;;;;;;;;;;8.50;90.50;;;;;;4911990;29;19945;-70
2023/04/25 12:01:33;;;;;;;;;;;8.50;90.60;;;;;;4918581;29;20005;-70
2023/04/25 12:04:11;;;;;;;;;;;8.60;90.60;;;;;;4930075;29;19915;-70
2023/04/25 12:06:39;;;;;;;;;;;8.70;90.60;;;;;;4911799;29;19921;-70
2023/04/25 12:09:04;;;;;;;;;;;8.80;91.20;;;;;;4905805;29;19919;-70
2023/04/25 12:11:31;;;;;;;;;;;9.00;90.70;;;;;;4931044;29;19930;-70
2023/04/25 12:14:01;;;;;;;;;;;9.20;90.40;;;;;;4916299;29;19950;-70
2023/04/25 12:16:26;;;;;;;;;;;9.40;86.90;;;;;;4909347;29;19928;-70
2023/04/25 12:18:53;;;;;;;;;;;9.60;86.00;;;;;;4914646;29;19914;-70
2023/04/25 12:21:20;;;;;;;;;;;10.00;82.70;;;;;;4902960;29;19949;-70
2023/04/25 12:23:46;;;;;;;;;;;10.20;79.60;;;;;;4925866;29;19949;-70
2023/04/25 12:26:12;;;;;;;;;;;10.20;77.70;;;;;;4927351;29;19949;-69
2023/04/25 12:28:38;;;;;;;;;;;10.00;75.80;;;;;;4935128;29;19946;-70
2023/04/25 12:31:04;;;;;;;;;;;10.00;74.70;;;;;;4920001;29;19911;-70
2023/04/25 12:33:30;;;;;;;;;;;10.10;74.60;;;;;;4913327;29;19915;-69
2023/04/25 12:35:56;;;;;;;;;;;10.20;73.80;;;;;;4899146;29;20014;-70
2023/04/25 12:38:22;;;;;;;;;;;10.10;75.40;;;;;;4908816;29;20014;-69
2023/04/25 12:40:48;;;;;;;;;;;10.00;70.60;;;;;;4912865;29;19941;-70
2023/04/25 12:43:13;;;;;;;;;;;9.80;73.10;;;;;;4913837;29;20395;-69
2023/04/25 12:45:39;;;;;;;;;;;9.70;70.90;;;;;;4917390;29;19914;-69
2023/04/25 12:48:05;;;;;;;;;;;9.60;72.50;;;;;;4898228;29;19925;-69
2023/04/25 12:50:31;;;;;;;;;;;9.50;75.40;;;;;;4934118;29;19915;-70
2023/04/25 12:52:57;;;;;;;;;;;9.50;76.90;;;;;;4914566;29;19915;-70
2023/04/25 12:55:22;;;;;;;;;;;9.40;79.10;;;;;;4913685;29;19927;-70
2023/04/25 12:57:48;;;;;;;;;;;9.30;81.20;;;;;;4949457;29;19946;-70
2023/04/25 13:00:14;;;;;;;;;;;9.40;81.90;;;;;;4917696;29;19960;-69
2023/04/25 13:02:40;;;;;;;;;;;9.20;76.30;;;;;;4949924;29;19915;-71
2023/04/25 13:05:06;;;;;;;;;;;9.00;76.70;;;;;;4949054;29;20414;-69
2023/04/25 13:07:32;;;;;;;;;;;8.90;78.60;;;;;;4933844;29;20437;-70
2023/04/25 13:09:57;;;;;;;;;;;8.80;81.60;;;;;;4936733;29;19937;-70
2023/04/25 13:12:23;;;;;;;;;;;8.90;82.70;;;;;;4934395;29;20010;-70
2023/04/25 13:14:48;;;;;;;;;;;9.20;83.70;;;;;;4951142;29;19914;-70
2023/04/25 13:17:14;;;;;;;;;;;9.60;83.10;;;;;;4937229;29;19985;-69
2023/04/25 13:19:40;;;;;;;;;;;9.90;82.30;;;;;;4938330;29;19915;-70
2023/04/25 13:22:07;;;;;;;;;;;10.10;80.50;;;;;;4950958;29;20888;-70
2023/04/25 13:24:32;;;;;;;;;;;10.40;80.30;;;;;;4938595;29;19914;-69
2023/04/25 13:26:58;;;;;;;;;;;10.40;78.10;;;;;;4937020;29;19911;-70
2023/04/25 13:29:24;;;;;;;;;;;10.40;78.60;;;;;;4936231;29;19930;-70
2023/04/25 13:31:49;;;;;;;;;;;10.30;78.10;;;;;;4937431;29;19982;-69
2023/04/25 13:34:15;;;;;;;;;;;10.10;79.40;;;;;;4937954;29;19915;-70
2023/04/25 13:36:41;;;;;;;;;;;10.40;79.30;;;;;;4937143;29;20514;-70
2023/04/25 13:39:07;;;;;;;;;;;10.50;81.10;;;;;;4936942;29;19911;-70
2023/04/25 13:41:32;;;;;;;;;;;10.30;80.70;;;;;;4936953;29;19915;-70
2023/04/25 13:43:58;;;;;;;;;;;10.00;80.30;;;;;;4952403;28;19914;-70
2023/04/25 13:46:23;;;;;;;;;;;10.00;80.80;;;;;;4937908;29;20364;-70
2023/04/25 13:48:50;;;;;;;;;;;10.00;78.10;;;;;;4937015;29;19914;-69
2023/04/25 13:51:16;;;;;;;;;;;9.70;77.10;;;;;;4938303;29;19915;-69
2023/04/25 13:53:42;;;;;;;;;;;9.70;77.20;;;;;;4938187;29;19915;-70
2023/04/25 13:56:07;;;;;;;;;;;9.70;79.30;;;;;;4951303;29;19922;-70
2023/04/25 13:58:33;;;;;;;;;;;9.60;79.00;;;;;;4952737;29;20684;-70
2023/04/25 14:00:58;;;;;;;;;;;9.50;78.80;;;;;;4952105;29;19941;-70
2023/04/25 14:03:24;;;;;;;;;;;9.60;76.60;;;;;;4921039;29;20005;-69
2023/04/25 14:05:50;;;;;;;;;;;9.60;73.60;;;;;;4936482;29;20326;-69
2023/04/25 14:08:16;;;;;;;;;;;9.70;73.30;;;;;;4938075;29;19911;-70
2023/04/25 14:10:42;;;;;;;;;;;10.00;71.70;;;;;;4936605;29;20224;-72
2023/04/25 14:13:07;;;;;;;;;;;10.30;69.30;;;;;;4936577;29;19953;-71
2023/04/25 14:15:33;;;;;;;;;;;10.20;67.30;;;;;;4952473;29;19950;-70
2023/04/25 14:17:59;;;;;;;;;;;9.90;66.90;;;;;;4946222;29;19914;-69
2023/04/25 14:20:25;;;;;;;;;;;9.90;67.20;;;;;;4935311;29;19950;-69
2023/04/25 14:22:51;;;;;;;;;;;9.80;68.40;;;;;;4935000;29;20339;-69